Penn Avon, Pennsylvania
Current Conditions -  °F | °C
As of 12:53 PM on Wednesday 28 Jan 2015 (Local Time) from KSEG Reporting Station
Clear Clear  
Wind Chill: 20°   Ceiling: Unl
Heat Index: 29°   Visibility: 10mi
Dew Point:   Wind: 10mph
Humidity: 33%   Direction: 300°WNW
Pressure: 30.2"   Gusts: NA
Location:  40.8385°N, 76.8972°W
Report Text: KSEG 281753Z AUTO 30009KT 10SM CLR M02/M16 A3020 RMK AO2 SLP235 T10171161 11011 21094 58004
Loading
Personal Weather Stations






























Interactive Weather Map New forecast layout! Learn more

10-Day Weather Forecast

Advertisements
Track Severe Weather on mobile